Time;durP1;ratioP1;P1;durP2;ratioP2;P2;SDS_P1;SDS_P2;PMS_P1;PMS_P2;Temp;Humidity;BMP_temperature;BMP_pressure;BME280_temperature;BME280_humidity;BME280_pressure;Samples;Min_cycle;Max_cycle;Signal;HPM_P1;HPM_P2
2022/09/14 00:01:08;;;;;;;3.38;3.10;;;;;;;21.58;70.98;94917.19;4939366;29;20209;-81
2022/09/14 00:03:35;;;;;;;5.15;3.20;;;;;;;21.54;70.96;94922.19;4940855;29;20241;-83
2022/09/14 00:06:05;;;;;;;4.25;3.33;;;;;;;21.53;71.42;94919.81;4940550;28;20221;-81
2022/09/14 00:08:32;;;;;;;4.53;3.55;;;;;;;21.51;71.83;94924.53;4938961;29;20198;-83
2022/09/14 00:10:59;;;;;;;4.78;3.38;;;;;;;21.51;71.76;94907.00;4939988;29;20205;-83
2022/09/14 00:13:25;;;;;;;5.05;3.45;;;;;;;21.51;71.15;94911.44;4939870;29;20253;-83
2022/09/14 00:15:51;;;;;;;3.97;3.58;;;;;;;21.48;71.19;94909.34;4939229;28;20237;-83
2022/09/14 00:18:19;;;;;;;4.03;3.58;;;;;;;21.50;70.44;94921.13;4939355;29;20272;-83
2022/09/14 00:20:46;;;;;;;3.55;3.25;;;;;;;21.52;70.06;94919.03;4939199;29;20210;-82
2022/09/14 00:23:12;;;;;;;5.32;3.40;;;;;;;21.57;69.69;94910.38;4939555;29;20213;-82
2022/09/14 00:25:38;;;;;;;3.13;2.88;;;;;;;21.60;69.35;94922.97;4940189;28;20725;-82
2022/09/14 00:28:05;;;;;;;3.42;3.08;;;;;;;21.62;69.20;94926.09;4940739;29;20205;-81
2022/09/14 00:30:31;;;;;;;4.63;3.15;;;;;;;21.67;69.17;94923.50;4939002;29;20201;-84
2022/09/14 00:32:58;;;;;;;4.05;3.10;;;;;;;21.68;69.08;94922.44;4940633;29;20225;-81
2022/09/14 00:35:26;;;;;;;3.58;3.15;;;;;;;21.68;69.39;94918.00;4940359;28;20243;-82
2022/09/14 00:37:52;;;;;;;3.80;3.05;;;;;;;21.64;69.61;94909.09;4941026;29;20197;-81
2022/09/14 00:40:19;;;;;;;6.22;3.38;;;;;;;21.59;69.99;94908.28;4939364;29;20202;-81
2022/09/14 00:42:45;;;;;;;6.38;3.42;;;;;;;21.55;70.05;94900.16;4940170;29;20221;-82
2022/09/14 00:45:16;;;;;;;3.50;3.20;;;;;;;21.59;69.83;94903.03;4940031;28;20233;-82
2022/09/14 00:47:43;;;;;;;3.40;3.10;;;;;;;21.56;69.85;94901.72;4935127;29;20209;-82
2022/09/14 00:50:10;;;;;;;4.43;3.53;;;;;;;21.55;70.42;94902.03;4940280;29;20288;-84
2022/09/14 00:52:41;;;;;;;4.28;3.22;;;;;;;21.57;70.20;94892.81;4940585;29;20260;-82
2022/09/14 00:55:13;;;;;;;6.75;3.55;;;;;;;21.43;72.25;94889.16;4939992;28;20888;-81
2022/09/14 00:57:43;;;;;;;5.75;3.50;;;;;;;21.36;71.64;94876.31;4939880;29;20256;-82
2022/09/14 01:00:12;;;;;;;3.67;3.13;;;;;;;21.17;73.15;94869.19;4939070;29;20198;-82
2022/09/14 01:02:39;;;;;;;4.22;3.10;;;;;;;21.12;73.28;94866.59;4939015;29;20225;-83
2022/09/14 01:05:07;;;;;;;4.97;3.20;;;;;;;21.19;72.93;94875.75;4938396;28;20370;-82
2022/09/14 01:07:48;;;;;;;3.70;3.40;;;;;;;21.27;72.71;94862.19;4937619;29;20198;-82
2022/09/14 01:10:27;;;;;;;3.67;3.03;;;;;;;21.29;73.03;94862.72;4938220;29;20262;-82
2022/09/14 01:13:05;;;;;;;3.65;3.00;;;;;;;21.30;72.83;94858.25;4933664;29;20276;-82
2022/09/14 01:15:40;;;;;;;3.53;3.20;;;;;;;21.24;73.03;94854.84;4938241;28;20228;-81
2022/09/14 01:18:15;;;;;;;5.78;3.40;;;;;;;21.12;73.60;94832.56;4938650;29;20621;-81
2022/09/14 01:20:47;;;;;;;5.03;3.35;;;;;;;20.96;74.65;94826.50;4937454;29;20260;-81
2022/09/14 01:23:22;;;;;;;3.20;2.80;;;;;;;21.02;74.30;94828.06;4938826;29;20221;-81
2022/09/14 01:26:10;;;;;;;4.80;3.45;;;;;;;21.08;74.34;94828.88;4931878;28;20225;-82
2022/09/14 01:28:42;;;;;;;4.05;3.10;;;;;;;21.08;74.42;94823.63;4937452;29;20216;-83
2022/09/14 01:31:16;;;;;;;3.78;3.10;;;;;;;21.11;73.74;94816.06;4937326;29;20625;-83
2022/09/14 01:33:51;;;;;;;4.50;3.40;;;;;;;21.16;73.14;94813.44;4938354;29;20225;-81
2022/09/14 01:36:19;;;;;;;4.13;3.30;;;;;;;21.17;72.89;94814.22;4937988;28;21039;-81
2022/09/14 01:38:48;;;;;;;3.60;3.13;;;;;;;21.21;72.79;94815.28;4932196;29;20202;-81
2022/09/14 01:41:19;;;;;;;4.18;3.20;;;;;;;21.24;72.48;94817.41;4938116;29;20261;-84
2022/09/14 01:43:52;;;;;;;3.58;3.15;;;;;;;21.21;72.06;94810.84;4932243;29;20320;-82
2022/09/14 01:46:25;;;;;;;3.65;3.22;;;;;;;21.21;71.83;94807.44;4937803;28;20233;-82
2022/09/14 01:49:00;;;;;;;3.33;3.03;;;;;;;21.23;72.03;94805.34;4933006;29;20293;-83
2022/09/14 01:51:35;;;;;;;3.63;2.78;;;;;;;21.17;72.42;94801.13;4937653;29;20203;-82
2022/09/14 01:54:07;;;;;;;3.75;2.95;;;;;;;21.17;72.34;94796.66;4935302;29;20224;-82
2022/09/14 01:56:38;;;;;;;3.72;2.95;;;;;;;21.22;72.01;94804.56;4934597;28;20233;-81
2022/09/14 01:59:11;;;;;;;3.20;2.35;;;;;;;21.25;72.49;94804.03;4935286;29;20228;-81
2022/09/14 02:01:45;;;;;;;3.05;2.80;;;;;;;21.27;71.72;94812.44;4933100;29;20554;-83
2022/09/14 02:04:15;;;;;;;3.88;2.92;;;;;;;21.26;71.45;94813.47;4934892;29;20710;-82
2022/09/14 02:06:45;;;;;;;4.15;2.90;;;;;;;21.28;71.44;94811.38;4934695;28;20237;-82
2022/09/14 02:09:16;;;;;;;2.80;2.60;;;;;;;21.31;71.07;94803.00;4934635;29;20205;-82
2022/09/14 02:11:42;;;;;;;3.83;2.60;;;;;;;21.30;70.65;94796.19;4933781;29;20240;-81
2022/09/14 02:14:10;;;;;;;3.85;2.50;;;;;;;21.28;70.73;94797.50;4934392;29;20225;-81
2022/09/14 02:16:38;;;;;;;3.55;2.72;;;;;;;21.32;70.76;94799.34;4933807;28;20229;-81
2022/09/14 02:19:05;;;;;;;3.00;2.70;;;;;;;21.31;71.00;94807.47;4934020;29;20209;-81
2022/09/14 02:21:33;;;;;;;3.17;2.40;;;;;;;21.34;70.81;94814.78;4933523;29;20256;-81
2022/09/14 02:24:00;;;;;;;3.28;2.60;;;;;;;21.32;71.01;94809.81;4933527;29;20217;-82
2022/09/14 02:26:28;;;;;;;3.28;2.30;;;;;;;21.29;70.90;94815.56;4933272;28;20653;-84
2022/09/14 02:28:55;;;;;;;2.42;2.22;;;;;;;21.32;70.61;94809.81;4933815;29;20233;-83
2022/09/14 02:31:31;;;;;;;3.10;2.45;;;;;;;21.29;70.80;94812.94;4933451;29;20197;-82
2022/09/14 02:34:05;;;;;;;4.80;2.65;;;;;;;21.26;71.10;94816.09;4929292;29;20709;-82
2022/09/14 02:36:42;;;;;;;2.97;2.15;;;;;;;21.24;71.01;94814.78;4933654;28;20235;-81
2022/09/14 02:39:17;;;;;;;2.30;2.10;;;;;;;21.20;71.09;94811.09;4933601;29;20201;-81
2022/09/14 02:41:49;;;;;;;5.13;2.20;;;;;;;21.21;70.79;94802.19;4926520;29;20185;-83
2022/09/14 02:44:20;;;;;;;3.30;2.03;;;;;;;21.24;70.78;94802.47;4933645;29;20218;-82
2022/09/14 02:46:55;;;;;;;2.33;1.92;;;;;;;21.18;71.32;94792.22;4935656;29;20233;-83
2022/09/14 02:49:29;;;;;;;5.90;2.00;;;;;;;21.11;71.53;94779.41;4937594;29;20208;-81
2022/09/14 02:52:02;;;;;;;3.03;2.20;;;;;;;20.99;71.76;94769.19;4932056;29;20204;-83
2022/09/14 02:54:33;;;;;;;1.95;1.85;;;;;;;21.03;72.11;94766.81;4937164;29;20281;-81
2022/09/14 02:57:00;;;;;;;3.88;1.90;;;;;;;20.95;72.11;94756.91;4937233;28;20229;-84
2022/09/14 02:59:27;;;;;;;3.65;2.00;;;;;;;20.99;72.04;94760.53;4936989;29;20205;-82
2022/09/14 03:01:55;;;;;;;6.75;2.47;;;;;;;21.02;72.16;94752.97;4937441;29;20209;-83
2022/09/14 03:04:22;;;;;;;2.10;1.90;;;;;;;21.09;71.58;94757.94;4937532;29;20312;-82
2022/09/14 03:06:49;;;;;;;2.20;2.00;;;;;;;21.06;72.63;94752.44;4938789;28;20232;-81
2022/09/14 03:09:15;;;;;;;2.35;1.73;;;;;;;21.07;72.41;94748.78;4940192;29;20256;-81
2022/09/14 03:11:42;;;;;;;2.65;1.80;;;;;;;21.04;72.60;94743.00;4938992;29;20198;-84
2022/09/14 03:14:09;;;;;;;4.82;2.00;;;;;;;21.09;72.15;94749.31;4939837;29;20229;-82
2022/09/14 03:16:37;;;;;;;2.60;1.80;;;;;;;21.12;71.96;94748.78;4939827;28;20233;-83
2022/09/14 03:19:06;;;;;;;4.18;1.92;;;;;;;21.15;71.51;94738.56;4938934;29;20228;-82
2022/09/14 03:21:33;;;;;;;1.90;1.80;;;;;;;21.16;71.60;94750.63;4938699;29;20907;-81
2022/09/14 03:23:59;;;;;;;1.80;1.70;;;;;;;21.16;71.49;94753.25;4939631;29;20633;-82
2022/09/14 03:26:27;;;;;;;3.03;1.88;;;;;;;21.13;71.20;94756.38;4939597;28;20244;-81
2022/09/14 03:28:56;;;;;;;2.00;1.70;;;;;;;21.15;71.64;94758.72;4940013;29;20660;-83
2022/09/14 03:31:24;;;;;;;3.50;1.63;;;;;;;21.15;71.67;94753.50;4939299;29;20229;-82
2022/09/14 03:33:53;;;;;;;4.05;2.10;;;;;;;21.18;71.21;94745.88;4939078;29;20229;-81
2022/09/14 03:36:21;;;;;;;2.28;1.80;;;;;;;21.20;71.15;94743.03;4938603;28;20264;-83
2022/09/14 03:38:50;;;;;;;5.07;1.77;;;;;;;21.20;71.20;94741.19;4938741;29;20201;-83
2022/09/14 03:41:17;;;;;;;1.90;1.80;;;;;;;21.21;71.20;94736.75;4938371;29;20205;-82
2022/09/14 03:43:44;;;;;;;3.30;1.67;;;;;;;21.20;71.46;94728.09;4938820;29;20834;-83
2022/09/14 03:46:13;;;;;;;2.67;1.75;;;;;;;21.19;71.60;94728.34;4938612;28;20269;-82
2022/09/14 03:48:40;;;;;;;5.88;1.67;;;;;;;21.13;71.76;94722.34;4938440;29;20205;-83
2022/09/14 03:51:09;;;;;;;1.88;1.73;;;;;;;21.13;71.44;94727.59;4938585;29;20202;-81
2022/09/14 03:53:37;;;;;;;1.77;1.67;;;;;;;21.15;71.46;94725.50;4938525;29;20236;-82
2022/09/14 03:56:07;;;;;;;2.95;1.80;;;;;;;21.12;71.69;94728.63;4938883;28;20308;-81
2022/09/14 03:58:33;;;;;;;1.70;1.60;;;;;;;21.10;71.50;94722.06;4937514;29;20252;-83
2022/09/14 04:01:03;;;;;;;1.75;1.65;;;;;;;21.12;71.42;94715.53;4937972;29;20197;-83
2022/09/14 04:03:31;;;;;;;3.50;1.60;;;;;;;21.12;71.50;94723.38;4937755;29;20218;-82
2022/09/14 04:05:57;;;;;;;2.95;1.85;;;;;;;21.14;71.80;94730.97;4939718;28;20724;-83
2022/09/14 04:08:24;;;;;;;2.30;1.50;;;;;;;21.14;71.83;94736.22;4940176;29;20217;-82
2022/09/14 04:10:52;;;;;;;1.90;1.70;;;;;;;21.15;71.59;94745.63;4939636;29;20206;-83
2022/09/14 04:13:18;;;;;;;1.55;1.45;;;;;;;21.16;71.42;94744.59;4939902;29;20701;-83
2022/09/14 04:15:55;;;;;;;2.00;1.63;;;;;;;21.19;71.37;94763.16;4938262;28;20237;-82
2022/09/14 04:18:21;;;;;;;3.40;1.50;;;;;;;21.16;71.37;94753.25;4940469;29;20204;-81
2022/09/14 04:20:54;;;;;;;2.00;1.50;;;;;;;21.23;71.25;94750.38;4939670;29;20621;-82
2022/09/14 04:23:20;;;;;;;2.03;1.60;;;;;;;21.25;71.29;94756.91;4939539;29;20277;-83
2022/09/14 04:25:47;;;;;;;1.95;1.40;;;;;;;21.24;71.11;94757.97;4939526;28;20229;-81
2022/09/14 04:28:14;;;;;;;2.42;1.67;;;;;;;21.27;71.14;94754.03;4939091;29;20201;-83
2022/09/14 04:30:41;;;;;;;2.35;1.80;;;;;;;21.28;71.10;94756.38;4917532;29;20241;-82
2022/09/14 04:33:08;;;;;;;2.58;1.70;;;;;;;21.26;71.78;94752.47;4930545;29;20237;-82
2022/09/14 04:35:36;;;;;;;2.38;1.80;;;;;;;21.28;71.50;94753.78;4931983;29;20233;-82
2022/09/14 04:38:03;;;;;;;3.78;1.60;;;;;;;21.30;71.82;94750.88;4933202;29;20248;-83
2022/09/14 04:40:29;;;;;;;1.75;1.50;;;;;;;21.34;72.02;94754.56;4935231;29;20209;-83
2022/09/14 04:42:56;;;;;;;1.75;1.63;;;;;;;21.35;71.77;94749.06;4937193;29;20229;-83
2022/09/14 04:45:26;;;;;;;4.70;1.70;;;;;;;21.38;71.98;94745.09;4938499;28;20225;-83
2022/09/14 04:47:53;;;;;;;1.80;1.60;;;;;;;21.34;72.62;94736.22;4941947;28;20280;-83
2022/09/14 04:50:20;;;;;;;1.88;1.60;;;;;;;21.27;73.94;94738.31;4928769;29;20292;-83
2022/09/14 04:52:46;;;;;;;1.90;1.73;;;;;;;21.26;73.65;94732.31;4940857;29;20953;-83
2022/09/14 04:55:12;;;;;;;2.88;1.70;;;;;;;21.26;73.55;94737.53;4941498;29;20729;-83
2022/09/14 04:57:39;;;;;;;2.53;1.70;;;;;;;21.24;74.11;94733.59;4942581;29;20637;-82
2022/09/14 05:00:06;;;;;;;1.80;1.70;;;;;;;21.20;74.62;94735.97;4943283;29;20748;-82
2022/09/14 05:02:34;;;;;;;3.22;1.90;;;;;;;21.22;74.25;94741.72;4944099;29;20272;-82
2022/09/14 05:05:01;;;;;;;1.70;1.60;;;;;;;21.24;73.68;94734.41;4942515;28;20832;-82
2022/09/14 05:07:27;;;;;;;4.00;1.73;;;;;;;21.27;73.57;94740.94;4943437;29;20202;-82
2022/09/14 05:09:53;;;;;;;2.38;1.70;;;;;;;21.29;73.45;94738.84;4942955;29;20205;-83
2022/09/14 05:12:20;;;;;;;2.55;1.80;;;;;;;21.24;73.66;94733.59;4943323;29;20213;-83
2022/09/14 05:14:46;;;;;;;2.42;1.73;;;;;;;21.26;73.43;94736.75;4942307;28;20232;-82
2022/09/14 05:17:13;;;;;;;2.90;1.90;;;;;;;21.25;73.10;94730.72;4942329;29;20236;-81
2022/09/14 05:19:41;;;;;;;2.40;1.70;;;;;;;21.27;73.08;94730.47;4941486;29;20271;-83
2022/09/14 05:22:07;;;;;;;3.67;1.90;;;;;;;21.26;73.40;94721.03;4941647;29;20229;-83
2022/09/14 05:24:34;;;;;;;2.08;1.80;;;;;;;21.27;73.20;94725.22;4941731;29;20698;-82
2022/09/14 05:27:00;;;;;;;3.60;1.67;;;;;;;21.25;73.29;94724.72;4941212;28;20237;-82
2022/09/14 05:29:28;;;;;;;2.20;1.55;;;;;;;21.25;73.52;94725.50;4932738;29;20258;-81
2022/09/14 05:31:55;;;;;;;2.05;1.80;;;;;;;21.29;73.28;94728.38;4940077;29;20783;-83
2022/09/14 05:34:21;;;;;;;5.47;2.00;;;;;;;21.33;73.08;94721.56;4938932;29;20281;-83
2022/09/14 05:36:51;;;;;;;4.15;1.92;;;;;;;21.32;73.50;94725.22;4938217;28;20225;-83
2022/09/14 05:39:18;;;;;;;3.17;1.85;;;;;;;21.37;72.96;94727.81;4945292;29;20593;-82
2022/09/14 05:41:44;;;;;;;2.90;1.77;;;;;;;21.42;73.18;94721.78;4927556;29;20733;-83
2022/09/14 05:44:10;;;;;;;3.38;1.75;;;;;;;21.43;73.79;94718.91;4937596;29;20224;-82
2022/09/14 05:46:37;;;;;;;3.47;1.90;;;;;;;21.45;73.58;94714.19;4925571;28;20227;-82
2022/09/14 05:49:03;;;;;;;2.70;1.80;;;;;;;21.45;74.01;94708.19;4937841;29;20205;-81
2022/09/14 05:51:30;;;;;;;3.92;1.92;;;;;;;21.52;73.34;94706.06;4955997;28;20228;-82
2022/09/14 05:53:58;;;;;;;2.63;1.67;;;;;;;21.56;73.09;94717.56;4948082;28;20222;-82
2022/09/14 05:56:26;;;;;;;5.07;2.15;;;;;;;21.58;73.09;94716.25;4936800;28;20788;-82
2022/09/14 05:58:53;;;;;;;6.55;2.10;;;;;;;21.61;72.98;94722.81;4938074;29;20205;-83
2022/09/14 06:01:21;;;;;;;3.20;1.70;;;;;;;21.62;72.91;94719.91;4930155;29;20205;-81
2022/09/14 06:03:49;;;;;;;5.00;2.15;;;;;;;21.68;72.83;94720.69;4930028;29;20574;-83
2022/09/14 06:06:17;;;;;;;5.15;2.20;;;;;;;21.69;72.71;94720.44;4937676;28;20237;-83
2022/09/14 06:08:44;;;;;;;3.45;1.95;;;;;;;21.71;72.44;94722.78;4937994;29;20190;-83
2022/09/14 06:11:14;;;;;;;4.13;2.05;;;;;;;21.73;72.53;94733.00;4937732;29;20200;-83
2022/09/14 06:13:41;;;;;;;6.90;1.92;;;;;;;21.76;72.45;94730.59;4936589;29;20593;-83
2022/09/14 06:16:11;;;;;;;3.00;1.95;;;;;;;21.73;72.74;94733.78;4935550;28;20769;-83
2022/09/14 06:18:42;;;;;;;6.13;2.13;;;;;;;21.74;73.01;94734.56;4937100;29;20206;-81
2022/09/14 06:21:11;;;;;;;4.75;1.80;;;;;;;21.77;72.96;94731.41;4937978;29;20208;-83
2022/09/14 06:23:37;;;;;;;4.03;1.65;;;;;;;21.70;73.62;94740.34;4940765;29;20232;-83
2022/09/14 06:26:05;;;;;;;3.38;1.92;;;;;;;21.63;73.37;94736.41;4942993;28;20220;-83
2022/09/14 06:28:34;;;;;;;2.92;1.83;;;;;;;21.65;73.43;94734.31;4941497;28;20245;-83
2022/09/14 06:31:02;;;;;;;4.57;1.90;;;;;;;21.71;73.47;94730.66;4942001;29;20221;-83
2022/09/14 06:33:28;;;;;;;4.38;2.00;;;;;;;21.73;73.78;94739.03;4942281;29;20217;-83
2022/09/14 06:35:55;;;;;;;5.18;1.85;;;;;;;21.73;73.75;94744.28;4940023;28;20232;-83
2022/09/14 06:38:22;;;;;;;1.75;1.65;;;;;;;21.70;73.35;94742.97;4942161;29;20198;-84
2022/09/14 06:40:53;;;;;;;2.63;1.67;;;;;;;21.77;73.36;94747.91;4940231;29;20241;-83
2022/09/14 06:43:20;;;;;;;5.38;3.13;;;;;;;21.81;73.29;94754.19;4941886;29;20225;-83
2022/09/14 06:45:57;;;;;;;4.68;4.20;;;;;;;21.83;73.37;94754.72;4940817;28;20799;-83
2022/09/14 06:48:23;;;;;;;2.60;2.15;;;;;;;21.83;73.25;94746.84;4940870;29;20193;-83
2022/09/14 06:50:50;;;;;;;3.53;1.70;;;;;;;21.87;72.94;94737.41;4940278;29;20202;-83
2022/09/14 06:53:17;;;;;;;3.08;2.38;;;;;;;21.84;73.03;94726.66;4941571;29;20225;-83
2022/09/14 06:55:44;;;;;;;4.70;1.90;;;;;;;21.82;72.66;94723.53;4939680;28;20245;-83
2022/09/14 06:58:10;;;;;;;4.55;2.20;;;;;;;21.84;72.95;94724.03;4942062;29;20229;-83
2022/09/14 07:00:37;;;;;;;2.15;1.67;;;;;;;21.88;73.31;94715.38;4941026;29;20201;-83
2022/09/14 07:03:05;;;;;;;2.63;1.70;;;;;;;21.84;73.72;94710.94;4936007;29;20253;-82
2022/09/14 07:05:32;;;;;;;1.95;1.67;;;;;;;21.85;74.37;94715.91;4941626;28;20280;-84
2022/09/14 07:07:58;;;;;;;5.13;1.88;;;;;;;21.91;74.31;94727.97;4942244;29;20206;-83
2022/09/14 07:10:27;;;;;;;3.03;1.75;;;;;;;21.94;74.48;94716.91;4944508;29;20205;-83
2022/09/14 07:12:58;;;;;;;4.55;2.33;;;;;;;22.01;73.99;94732.41;4942156;29;20253;-83
2022/09/14 07:15:24;;;;;;;6.22;2.10;;;;;;;22.00;74.22;94739.47;4943301;28;20237;-83
2022/09/14 07:17:51;;;;;;;3.00;1.77;;;;;;;22.01;74.52;94733.19;4943712;29;20233;-83
2022/09/14 07:20:19;;;;;;;2.65;1.77;;;;;;;22.09;73.91;94739.72;4942827;29;20216;-83
2022/09/14 07:22:45;;;;;;;2.28;1.67;;;;;;;22.10;74.21;94732.63;4943194;29;20221;-83
2022/09/14 07:25:11;;;;;;;2.20;1.50;;;;;;;22.18;73.83;94738.09;4941922;28;20230;-83
2022/09/14 07:27:39;;;;;;;3.05;1.77;;;;;;;22.15;74.08;94733.38;4949521;29;20220;-83
2022/09/14 07:30:08;;;;;;;3.45;1.75;;;;;;;22.22;73.94;94739.13;4936485;29;20198;-84
2022/09/14 07:32:34;;;;;;;2.83;1.73;;;;;;;22.28;73.78;94742.50;4940643;29;20265;-83
2022/09/14 07:35:01;;;;;;;6.38;1.88;;;;;;;22.34;73.84;94738.78;4941628;28;20237;-83
2022/09/14 07:37:30;;;;;;;4.70;1.70;;;;;;;22.39;73.60;94747.44;4941435;29;20198;-83
2022/09/14 07:39:57;;;;;;;4.05;1.80;;;;;;;22.48;73.37;94741.63;4942096;29;20210;-82
2022/09/14 07:42:23;;;;;;;23.88;19.77;;;;;;;22.55;73.77;94732.38;4941058;29;20237;-83
2022/09/14 07:44:49;;;;;;;3.70;3.25;;;;;;;22.61;73.51;94738.38;4939674;28;20210;-84
2022/09/14 07:47:16;;;;;;;6.28;2.00;;;;;;;22.66;73.38;94743.59;4941892;29;20205;-83
2022/09/14 07:49:42;;;;;;;4.28;2.05;;;;;;;22.79;73.17;94743.00;4939421;29;20194;-83
2022/09/14 07:52:10;;;;;;;4.57;2.03;;;;;;;22.88;72.56;94738.75;4937352;29;20841;-83
2022/09/14 07:54:38;;;;;;;4.32;1.80;;;;;;;23.11;71.56;94739.09;4937698;28;20217;-82
2022/09/14 07:57:04;;;;;;;4.18;1.95;;;;;;;23.26;70.77;94731.88;4939520;29;20261;-82
2022/09/14 07:59:31;;;;;;;3.63;1.80;;;;;;;23.36;69.23;94734.41;4939172;29;20202;-83
2022/09/14 08:02:03;;;;;;;3.35;1.83;;;;;;;23.51;68.28;94745.81;4935441;29;20208;-83
2022/09/14 08:04:29;;;;;;;3.47;1.90;;;;;;;23.58;67.95;94747.09;4938353;29;20221;-82
2022/09/14 08:06:57;;;;;;;3.30;1.80;;;;;;;23.52;68.17;94755.31;4936529;28;20386;-81
2022/09/14 08:09:24;;;;;;;4.30;1.88;;;;;;;23.57;67.92;94757.91;4938888;29;20225;-82
2022/09/14 08:11:52;;;;;;;4.05;1.70;;;;;;;23.59;67.14;94767.06;4936827;29;20233;-84
2022/09/14 08:14:19;;;;;;;4.43;1.80;;;;;;;23.71;66.64;94770.09;4937867;29;20229;-82
2022/09/14 08:16:45;;;;;;;3.78;1.90;;;;;;;23.77;66.49;94776.09;4937119;28;20284;-83
2022/09/14 08:19:14;;;;;;;3.50;1.60;;;;;;;23.80;66.22;94767.66;4939176;29;20213;-82
2022/09/14 08:21:40;;;;;;;4.20;1.80;;;;;;;23.87;65.59;94769.94;4938479;29;20217;-82
2022/09/14 08:24:07;;;;;;;3.53;1.58;;;;;;;23.95;65.94;94767.47;4938665;29;20222;-82
2022/09/14 08:26:36;;;;;;;5.25;1.92;;;;;;;23.94;65.84;94758.03;4940733;28;20220;-82
2022/09/14 08:29:04;;;;;;;2.55;1.80;;;;;;;23.97;64.41;94761.94;4962725;28;20231;-83
2022/09/14 08:31:31;;;;;;;2.95;1.85;;;;;;;23.99;63.87;94757.97;4962435;28;20205;-82
2022/09/14 08:33:59;;;;;;;2.70;1.73;;;;;;;24.10;62.41;94763.88;4961489;28;20296;-82
2022/09/14 08:36:29;;;;;;;3.83;1.80;;;;;;;24.21;62.33;94761.94;4942811;28;20287;-82
2022/09/14 08:38:56;;;;;;;2.75;1.50;;;;;;;24.43;61.40;94764.84;4943547;29;20519;-83
2022/09/14 08:41:28;;;;;;;2.97;1.67;;;;;;;24.82;60.18;94774.31;4942503;29;20209;-82
2022/09/14 08:43:55;;;;;;;3.47;1.70;;;;;;;25.07;59.82;94772.09;4940952;29;20775;-82
2022/09/14 08:46:30;;;;;;;3.88;1.70;;;;;;;25.34;59.38;94776.69;4939401;28;20722;-83
2022/09/14 08:48:57;;;;;;;5.35;2.03;;;;;;;25.40;57.86;94769.50;4938630;29;20201;-83
2022/09/14 08:51:23;;;;;;;3.78;1.52;;;;;;;25.67;57.96;94766.94;4939751;29;20201;-83
2022/09/14 08:53:52;;;;;;;3.38;1.60;;;;;;;25.76;56.22;94769.69;4938658;29;20228;-83
2022/09/14 08:56:23;;;;;;;3.20;1.90;;;;;;;25.84;55.78;94758.44;4937137;28;20237;-83
2022/09/14 08:59:10;;;;;;;4.63;1.60;;;;;;;26.00;55.48;94783.44;4942032;29;20209;-83
2022/09/14 09:01:47;;;;;;;1.58;1.48;;;;;;;26.03;55.21;94774.97;4938050;29;20201;-83
2022/09/14 09:04:25;;;;;;;3.05;1.70;;;;;;;26.13;54.60;94780.06;4935090;29;20249;-83
2022/09/14 09:06:58;;;;;;;3.22;1.65;;;;;;;26.14;54.68;94786.13;4936985;28;20229;-82
2022/09/14 09:09:31;;;;;;;2.65;2.00;;;;;;;26.30;54.61;94797.97;4937569;29;20630;-83
2022/09/14 09:11:58;;;;;;;2.88;1.83;;;;;;;26.03;54.37;94797.91;4936815;29;20201;-83
2022/09/14 09:14:31;;;;;;;5.20;1.80;;;;;;;26.06;54.42;94784.94;4936355;29;20339;-85
2022/09/14 09:17:03;;;;;;;1.90;1.50;;;;;;;26.33;54.45;94792.09;4934861;28;20233;-83
2022/09/14 09:19:34;;;;;;;3.38;1.70;;;;;;;26.28;54.67;94796.66;4934726;29;20217;-83
2022/09/14 09:22:03;;;;;;;2.85;1.60;;;;;;;26.13;54.29;94809.09;4940376;29;20208;-83
2022/09/14 09:24:36;;;;;;;2.47;1.70;;;;;;;26.24;53.47;94800.94;4941808;29;20245;-83
2022/09/14 09:27:09;;;;;;;3.60;1.70;;;;;;;26.58;53.71;94808.47;4951622;29;20262;-83
2022/09/14 09:29:35;;;;;;;6.03;1.80;;;;;;;26.46;53.76;94812.41;4961791;29;20201;-83
2022/09/14 09:32:06;;;;;;;4.43;2.13;;;;;;;26.59;53.60;94802.13;4960464;29;20896;-83
2022/09/14 09:34:34;;;;;;;2.90;1.80;;;;;;;26.63;53.47;94809.16;4962781;28;20225;-82
2022/09/14 09:37:01;;;;;;;5.00;1.88;;;;;;;26.37;53.47;94805.47;4961453;28;20640;-83
2022/09/14 09:39:30;;;;;;;5.40;1.70;;;;;;;26.25;54.39;94813.84;4961961;28;20201;-81
2022/09/14 09:42:00;;;;;;;4.00;1.77;;;;;;;26.15;53.59;94795.59;4961225;28;20200;-82
2022/09/14 09:44:27;;;;;;;3.60;1.30;;;;;;;26.03;54.21;94803.19;4949296;28;20229;-83
2022/09/14 09:46:55;;;;;;;4.82;1.80;;;;;;;25.90;54.53;94812.66;4942157;28;20255;-83
2022/09/14 09:49:25;;;;;;;4.63;1.77;;;;;;;25.56;54.55;94810.34;4942950;29;20292;-83
2022/09/14 09:51:53;;;;;;;2.70;1.83;;;;;;;25.50;55.11;94808.84;4937998;29;20239;-84
2022/09/14 09:54:26;;;;;;;4.07;2.17;;;;;;;25.55;55.40;94813.25;4922615;29;20257;-83
2022/09/14 09:56:55;;;;;;;4.13;1.90;;;;;;;25.61;56.18;94804.97;4931863;29;20645;-82
2022/09/14 09:59:28;;;;;;;4.25;1.90;;;;;;;25.49;56.13;94796.75;4942501;29;20205;-82
2022/09/14 10:01:56;;;;;;;5.22;1.70;;;;;;;25.50;55.89;94800.16;4941359;29;20197;-81
2022/09/14 10:04:26;;;;;;;3.63;1.90;;;;;;;25.46;56.20;94794.69;4943031;29;20237;-83
2022/09/14 10:06:54;;;;;;;2.13;1.50;;;;;;;25.63;55.99;94789.66;4941502;28;20234;-83
2022/09/14 10:09:23;;;;;;;2.60;1.55;;;;;;;25.71;56.14;94775.03;4942217;29;20198;-83
2022/09/14 10:11:57;;;;;;;3.03;1.70;;;;;;;25.75;55.94;94768.91;4941631;29;20274;-83
2022/09/14 10:14:30;;;;;;;3.67;1.70;;;;;;;25.77;56.67;94769.41;4942387;29;20245;-83
2022/09/14 10:17:05;;;;;;;6.05;2.13;;;;;;;25.78;55.44;94763.03;4941343;28;20249;-83
2022/09/14 10:19:34;;;;;;;5.65;1.98;;;;;;;25.66;55.41;94759.31;4941723;29;20673;-83
2022/09/14 10:22:25;;;;;;;4.85;2.30;;;;;;;25.72;55.70;94758.94;4940012;29;20194;-83
2022/09/14 10:24:55;;;;;;;4.28;2.10;;;;;;;25.98;55.28;94755.81;4941454;28;20205;-83
2022/09/14 10:27:38;;;;;;;3.35;1.70;;;;;;;26.07;54.65;94754.84;4942000;29;20257;-83
2022/09/14 10:30:06;;;;;;;6.68;1.83;;;;;;;26.13;54.27;94750.25;4940325;29;20680;-83
2022/09/14 10:32:34;;;;;;;4.68;1.90;;;;;;;26.19;54.93;94761.47;4941564;29;20253;-83
2022/09/14 10:35:11;;;;;;;3.72;1.90;;;;;;;26.24;55.36;94756.88;4941524;28;20792;-83
2022/09/14 10:37:43;;;;;;;4.07;2.22;;;;;;;26.10;55.48;94741.06;4942160;29;20221;-82
2022/09/14 10:40:15;;;;;;;4.40;1.92;;;;;;;26.10;55.55;94732.34;4941894;29;20235;-83
2022/09/14 10:42:51;;;;;;;2.22;1.80;;;;;;;25.95;55.08;94741.34;4935487;29;20209;-83
2022/09/14 10:45:22;;;;;;;2.47;1.80;;;;;;;25.86;56.19;94721.22;4938949;28;20316;-81
2022/09/14 10:48:11;;;;;;;3.22;1.77;;;;;;;25.81;54.52;94725.50;4939279;29;20321;-83
2022/09/14 10:50:51;;;;;;;4.38;1.70;;;;;;;25.79;55.23;94724.25;4935798;29;20466;-83
2022/09/14 10:53:32;;;;;;;4.10;1.90;;;;;;;25.85;54.91;94722.28;4934367;29;20218;-83
2022/09/14 10:56:02;;;;;;;3.83;1.85;;;;;;;25.94;54.86;94721.34;4938812;28;20225;-83
2022/09/14 10:58:50;;;;;;;2.55;1.67;;;;;;;26.09;54.80;94721.03;4940300;29;20201;-83
2022/09/14 11:01:30;;;;;;;3.65;2.20;;;;;;;26.33;55.29;94723.47;4937148;29;20212;-80
2022/09/14 11:04:08;;;;;;;5.28;1.98;;;;;;;26.30;54.24;94728.56;4938207;29;20309;-82
2022/09/14 11:06:48;;;;;;;3.78;1.90;;;;;;;26.50;55.89;94709.63;4939047;28;20240;-81
2022/09/14 11:09:21;;;;;;;5.15;1.80;;;;;;;26.66;54.49;94718.00;4943513;29;20225;-80
2022/09/14 11:11:58;;;;;;;5.75;2.33;;;;;;;26.68;53.51;94713.19;4936326;29;20206;-81
2022/09/14 11:14:36;;;;;;;5.30;2.00;;;;;;;26.83;53.33;94712.84;4939957;29;20565;-82
2022/09/14 11:17:18;;;;;;;4.90;2.42;;;;;;;26.83;54.65;94704.91;4945181;29;20253;-81
2022/09/14 11:19:57;;;;;;;3.38;1.65;;;;;;;26.87;52.61;94703.25;4943965;29;20217;-82
2022/09/14 11:22:34;;;;;;;3.30;1.83;;;;;;;26.62;53.33;94709.88;4942141;29;20201;-84
2022/09/14 11:25:08;;;;;;;6.43;4.25;;;;;;;26.56;52.96;94699.72;4939528;28;20251;-83
2022/09/14 11:27:40;;;;;;;6.93;2.50;;;;;;;26.42;53.35;94699.78;4943687;29;20204;-83
2022/09/14 11:30:14;;;;;;;3.65;1.85;;;;;;;26.43;52.83;94691.56;4941305;29;20666;-84
2022/09/14 11:32:44;;;;;;;3.05;1.80;;;;;;;26.70;53.37;94692.56;4930038;29;20218;-83
2022/09/14 11:35:18;;;;;;;2.80;1.83;;;;;;;26.80;52.11;94684.38;4921797;29;20254;-85
2022/09/14 11:37:50;;;;;;;4.60;2.35;;;;;;;26.95;52.29;94681.41;4929694;29;20216;-84
2022/09/14 11:40:22;;;;;;;3.38;2.13;;;;;;;27.03;52.74;94674.63;4937618;29;20202;-85
2022/09/14 11:42:56;;;;;;;8.00;2.53;;;;;;;27.07;52.33;94667.66;4941327;29;20231;-84
2022/09/14 11:45:28;;;;;;;3.65;1.90;;;;;;;27.16;51.61;94657.91;4936936;28;20728;-83